Atlantic City, NJ

4:49 PM EDT on June 03, 2015 (GMT -0400)
APRSWXNET | | Change Station
CLOSE
Current Station
Personal Weather Station
Location: Absecon, NJ
Elevation: 9 ft
Nearby Weather Stations

Elev 9 ft 39.40 °N, 74.47 °W | Updated 29 minutes ago

Overcast
Overcast
57 °F
Feels Like 57 °F
N
2
Wind Variable Wind from NE
Gusts 11.0 mph

Today
High -- | Low -- °F
--% Chance of Precip.
Yesterday
High -- | Low -- °F
Precip. -- in
5:32 AM 8:19 PM
Full, 98% visible
Pressure 30.18 in
Visibility 10.0 miles
Clouds Few 1900 ft
Overcast 3100 ft
Dew Point 54 °F
Humidity 90%
Rainfall in
Snow Depth Not available.
UV 2 out of 12
Pollen 4.70 out of 12
Air Quality Not available.
Flu Activity Sporadic
METAR KACY 031954Z 06011G19KT 10SM FEW019 OVC031 17/11 A3018 RMK AO2 SLP220 T01670111

More Conditions Fewer Conditions

Pressure 30.18 in
Visibility 10.0 miles
Clouds Few 1900 ft
Overcast 3100 ft
Dew Point 54 °F
Humidity 90%
Rainfall in
Snow Depth Not available.
UV 2 out of 12
Pollen 4.70 out of 12
Air Quality Not available.
Flu Activity Sporadic
METAR KACY 031954Z 06011G19KT 10SM FEW019 OVC031 17/11 A3018 RMK AO2 SLP220 T01670111

More Conditions Fewer Conditions

10-Day Weather Forecast

×

Almanac

Astronomy

Jun. 03, 2015 Rise Set
Actual Time
Civil Twilight
Nautical Twilight
Astronomical Twilight
Moon
Length of Visible Light
Length of Day
Tomorrow will be .
, % of the Moon is Illuminated

Today's Extremes

State Highs State Lows

Community

WunderPhotos

Upload Photos

1,826,279 photos uploaded!

WunderBlogs® & News

Nearby

Air Quality

  Air Quality AQ Index Pollutant
Not available.

Snow Depth

Station Depth Elevation

Earthquake Activity

City Distance Mag. Time & Date
Minimum magnitude displayed is 2.5.

Coastal Water Temperatures

Place Temperature

Stations

Nearby Weather Stations

Station Location Temp. Windchill Dew Point Humidity Wind Precip. Elev Updated Type